Time;durP1;ratioP1;P1;durP2;ratioP2;P2;SDS_P1;SDS_P2;PMS_P1;PMS_P2;Temp;Humidity;BMP_temperature;BMP_pressure;BME280_temperature;BME280_humidity;BME280_pressure;Samples;Min_cycle;Max_cycle;Signal;HPM_P1;HPM_P2
2021/07/04 00:01:10;;;;;;;;;;;22.70;55.30;;;;;;516351;230;988;-73
2021/07/04 00:03:11;;;;;;;;;;;22.70;55.30;;;;;;516331;231;1038;-73
2021/07/04 00:05:12;;;;;;;;;;;22.80;55.10;;;;;;516371;230;954;-73
2021/07/04 00:07:14;;;;;;;;;;;22.80;54.80;;;;;;516276;231;1162;-73
2021/07/04 00:09:15;;;;;;;;;;;22.80;55.00;;;;;;516361;231;1085;-73
2021/07/04 00:11:17;;;;;;;;;;;22.70;55.10;;;;;;516326;230;1016;-73
2021/07/04 00:13:18;;;;;;;;;;;22.70;55.30;;;;;;516318;230;943;-73
2021/07/04 00:15:19;;;;;;;;;;;22.60;55.50;;;;;;516333;231;2168;-73
2021/07/04 00:17:21;;;;;;;;;;;22.70;55.30;;;;;;516287;230;996;-73
2021/07/04 00:19:22;;;;;;;;;;;22.70;55.40;;;;;;516344;230;1128;-73
2021/07/04 00:21:23;;;;;;;;;;;22.80;55.30;;;;;;516244;231;924;-73
2021/07/04 00:23:25;;;;;;;;;;;22.70;55.20;;;;;;516331;231;1155;-73
2021/07/04 00:25:26;;;;;;;;;;;22.80;55.30;;;;;;516394;230;906;-73
2021/07/04 00:27:27;;;;;;;;;;;22.80;55.30;;;;;;516320;230;953;-73
2021/07/04 00:29:29;;;;;;;;;;;22.80;55.40;;;;;;516377;230;971;-73
2021/07/04 00:31:30;;;;;;;;;;;22.70;55.30;;;;;;516318;230;936;-73
2021/07/04 00:33:31;;;;;;;;;;;22.70;55.30;;;;;;516292;230;1046;-73
2021/07/04 00:35:33;;;;;;;;;;;22.80;55.30;;;;;;516288;230;2133;-73
2021/07/04 00:37:34;;;;;;;;;;;22.80;55.30;;;;;;516231;230;1135;-73
2021/07/04 00:39:35;;;;;;;;;;;22.70;55.50;;;;;;516322;231;1024;-73
2021/07/04 00:41:37;;;;;;;;;;;22.70;55.50;;;;;;516302;230;940;-73
2021/07/04 00:43:38;;;;;;;;;;;22.70;55.60;;;;;;516291;231;974;-73
2021/07/04 00:45:39;;;;;;;;;;;22.60;55.80;;;;;;516304;231;918;-73
2021/07/04 00:47:41;;;;;;;;;;;22.70;55.60;;;;;;516328;231;1011;-73
2021/07/04 00:49:42;;;;;;;;;;;22.70;55.60;;;;;;516343;231;952;-73
2021/07/04 00:51:44;;;;;;;;;;;22.70;55.50;;;;;;516287;231;936;-73
2021/07/04 00:53:45;;;;;;;;;;;22.70;55.50;;;;;;516358;231;1276;-73
2021/07/04 00:55:46;;;;;;;;;;;22.70;55.40;;;;;;516340;230;2180;-73
2021/07/04 00:57:48;;;;;;;;;;;22.70;55.60;;;;;;516268;230;1062;-73
2021/07/04 00:59:49;;;;;;;;;;;22.80;55.60;;;;;;516248;230;1029;-73
2021/07/04 01:01:50;;;;;;;;;;;22.70;55.60;;;;;;516269;231;934;-73
2021/07/04 01:03:52;;;;;;;;;;;22.70;55.50;;;;;;516271;231;1049;-73
2021/07/04 01:05:53;;;;;;;;;;;23.00;55.00;;;;;;516325;230;1067;-73
2021/07/04 01:07:54;;;;;;;;;;;22.90;55.00;;;;;;516282;231;1142;-73
2021/07/04 01:09:56;;;;;;;;;;;22.80;55.20;;;;;;516379;230;1227;-73
2021/07/04 01:11:57;;;;;;;;;;;22.70;55.50;;;;;;516290;230;1092;-73
2021/07/04 01:13:58;;;;;;;;;;;22.80;55.70;;;;;;516292;230;940;-73
2021/07/04 01:16:00;;;;;;;;;;;22.70;55.60;;;;;;516224;231;2168;-73
2021/07/04 01:18:01;;;;;;;;;;;22.80;55.40;;;;;;516266;230;954;-73
2021/07/04 01:20:02;;;;;;;;;;;22.70;55.60;;;;;;516275;231;945;-73
2021/07/04 01:22:04;;;;;;;;;;;22.70;55.50;;;;;;516227;231;1025;-73
2021/07/04 01:24:05;;;;;;;;;;;22.80;55.60;;;;;;516346;230;1218;-73
2021/07/04 01:26:06;;;;;;;;;;;22.80;55.70;;;;;;516265;230;1021;-73
2021/07/04 01:28:08;;;;;;;;;;;22.80;55.70;;;;;;516342;230;1086;-73
2021/07/04 01:30:09;;;;;;;;;;;22.80;55.70;;;;;;516425;230;1019;-73
2021/07/04 01:32:10;;;;;;;;;;;22.70;55.80;;;;;;516324;230;1071;-73
2021/07/04 01:34:12;;;;;;;;;;;22.50;56.20;;;;;;516336;230;1025;-73
2021/07/04 01:36:13;;;;;;;;;;;22.50;56.50;;;;;;516318;230;2313;-73
2021/07/04 01:38:14;;;;;;;;;;;22.40;56.70;;;;;;513250;230;1327;-73
2021/07/04 01:40:16;;;;;;;;;;;22.40;56.80;;;;;;511231;232;1022;-73
2021/07/04 01:42:17;;;;;;;;;;;22.30;56.90;;;;;;514662;231;1021;-73
2021/07/04 01:44:18;;;;;;;;;;;22.30;57.10;;;;;;514701;231;1173;-73
2021/07/04 01:46:20;;;;;;;;;;;22.20;57.10;;;;;;515041;231;967;-73
2021/07/04 01:48:21;;;;;;;;;;;22.20;57.20;;;;;;516319;230;1072;-73
2021/07/04 01:50:22;;;;;;;;;;;22.30;57.10;;;;;;516332;231;1075;-73
2021/07/04 01:52:24;;;;;;;;;;;22.30;57.00;;;;;;516271;230;944;-73
2021/07/04 01:54:25;;;;;;;;;;;22.30;57.00;;;;;;516329;230;1302;-73
2021/07/04 01:56:26;;;;;;;;;;;22.30;57.10;;;;;;516337;230;2129;-73
2021/07/04 01:58:28;;;;;;;;;;;22.30;57.10;;;;;;516321;230;934;-73
2021/07/04 02:00:29;;;;;;;;;;;22.30;57.00;;;;;;516323;231;1101;-73
2021/07/04 02:02:30;;;;;;;;;;;22.30;57.10;;;;;;516280;230;979;-73
2021/07/04 02:04:32;;;;;;;;;;;22.30;57.00;;;;;;516315;230;975;-73
2021/07/04 02:06:33;;;;;;;;;;;22.50;56.50;;;;;;516171;231;1094;-73
2021/07/04 02:08:34;;;;;;;;;;;22.40;56.60;;;;;;516292;231;1167;-73
2021/07/04 02:10:36;;;;;;;;;;;22.40;56.70;;;;;;516340;230;960;-73
2021/07/04 02:12:37;;;;;;;;;;;22.40;56.90;;;;;;516316;231;1072;-73
2021/07/04 02:14:38;;;;;;;;;;;22.40;56.90;;;;;;516292;231;935;-73
2021/07/04 02:16:40;;;;;;;;;;;22.20;56.90;;;;;;516307;231;2169;-73
2021/07/04 02:18:41;;;;;;;;;;;22.30;56.90;;;;;;516332;231;972;-73
2021/07/04 02:20:42;;;;;;;;;;;22.40;56.90;;;;;;516322;231;1098;-73
2021/07/04 02:22:44;;;;;;;;;;;22.40;56.90;;;;;;516366;230;953;-73
2021/07/04 02:24:45;;;;;;;;;;;22.40;56.90;;;;;;516408;231;1239;-73
2021/07/04 02:26:46;;;;;;;;;;;22.40;56.80;;;;;;516383;230;1079;-73
2021/07/04 02:28:48;;;;;;;;;;;22.40;56.80;;;;;;516350;231;933;-73
2021/07/04 02:30:49;;;;;;;;;;;22.40;56.70;;;;;;516318;230;1119;-73
2021/07/04 02:32:50;;;;;;;;;;;22.30;56.70;;;;;;516391;230;935;-73
2021/07/04 02:34:52;;;;;;;;;;;22.40;56.90;;;;;;516313;231;1052;-73
2021/07/04 02:36:53;;;;;;;;;;;22.30;57.00;;;;;;516259;230;2187;-73
2021/07/04 02:38:54;;;;;;;;;;;22.40;56.90;;;;;;516325;230;1058;-73
2021/07/04 02:40:56;;;;;;;;;;;22.40;56.90;;;;;;516289;231;1003;-73
2021/07/04 02:42:57;;;;;;;;;;;22.40;56.80;;;;;;516304;231;918;-73
2021/07/04 02:45:00;;;;;;;;;;;22.30;57.00;;;;;;516300;230;955;-73
2021/07/04 02:47:00;;;;;;;;;;;22.30;57.10;;;;;;516176;231;1372;-73
2021/07/04 02:49:01;;;;;;;;;;;22.20;57.20;;;;;;516430;230;1057;-73
2021/07/04 02:51:02;;;;;;;;;;;22.20;57.20;;;;;;516348;230;958;-73
2021/07/04 02:53:04;;;;;;;;;;;22.20;57.20;;;;;;516379;230;1017;-73
2021/07/04 02:55:05;;;;;;;;;;;22.20;57.20;;;;;;516357;231;1175;-73
2021/07/04 02:57:06;;;;;;;;;;;22.20;57.10;;;;;;516342;231;2090;-73
2021/07/04 02:59:08;;;;;;;;;;;22.40;57.00;;;;;;516390;231;951;-73
2021/07/04 03:01:09;;;;;;;;;;;22.40;56.80;;;;;;516222;231;967;-73
2021/07/04 03:03:10;;;;;;;;;;;22.40;56.70;;;;;;516314;231;961;-73
2021/07/04 03:05:12;;;;;;;;;;;22.50;56.80;;;;;;516325;230;923;-73
2021/07/04 03:07:13;;;;;;;;;;;22.40;56.50;;;;;;516311;231;1132;-73
2021/07/04 03:09:15;;;;;;;;;;;22.40;56.60;;;;;;516355;230;1154;-73
2021/07/04 03:11:16;;;;;;;;;;;22.40;56.60;;;;;;516328;230;934;-73
2021/07/04 03:13:17;;;;;;;;;;;22.40;56.70;;;;;;516390;231;1113;-72
2021/07/04 03:15:19;;;;;;;;;;;22.40;56.70;;;;;;516298;230;929;-72
2021/07/04 03:17:20;;;;;;;;;;;22.30;56.80;;;;;;516355;230;1313;-73
2021/07/04 03:19:21;;;;;;;;;;;22.40;56.80;;;;;;516382;230;1007;-73
2021/07/04 03:21:22;;;;;;;;;;;22.30;56.80;;;;;;516326;230;1057;-73
2021/07/04 03:23:24;;;;;;;;;;;22.40;56.90;;;;;;516418;230;965;-73
2021/07/04 03:25:25;;;;;;;;;;;22.40;56.80;;;;;;516433;230;1183;-73
2021/07/04 03:27:26;;;;;;;;;;;22.40;56.90;;;;;;516328;231;1293;-73
2021/07/04 03:29:28;;;;;;;;;;;22.40;56.90;;;;;;516299;230;981;-73
2021/07/04 03:31:29;;;;;;;;;;;22.40;56.90;;;;;;516316;231;1157;-73
2021/07/04 03:33:31;;;;;;;;;;;22.40;56.80;;;;;;516381;230;1046;-73
2021/07/04 03:35:32;;;;;;;;;;;22.30;56.80;;;;;;516285;231;2173;-73
2021/07/04 03:37:34;;;;;;;;;;;22.40;56.90;;;;;;516352;230;1015;-73
2021/07/04 03:39:35;;;;;;;;;;;22.40;56.70;;;;;;516393;230;1197;-73
2021/07/04 03:41:36;;;;;;;;;;;22.30;56.90;;;;;;516251;230;1087;-73
2021/07/04 03:43:37;;;;;;;;;;;22.40;56.80;;;;;;516347;230;954;-73
2021/07/04 03:45:39;;;;;;;;;;;22.40;56.80;;;;;;516221;231;1201;-73
2021/07/04 03:47:40;;;;;;;;;;;22.40;57.00;;;;;;516341;230;1045;-73
2021/07/04 03:49:42;;;;;;;;;;;22.20;57.10;;;;;;516369;231;941;-73
2021/07/04 03:51:43;;;;;;;;;;;22.30;57.20;;;;;;516248;230;998;-73
2021/07/04 03:53:44;;;;;;;;;;;22.20;57.30;;;;;;516340;230;947;-73
2021/07/04 03:55:46;;;;;;;;;;;22.30;57.20;;;;;;516286;230;2173;-73
2021/07/04 03:57:47;;;;;;;;;;;22.30;57.00;;;;;;516287;230;982;-73
2021/07/04 03:59:48;;;;;;;;;;;22.30;57.20;;;;;;516327;231;951;-73
2021/07/04 04:01:50;;;;;;;;;;;22.40;57.00;;;;;;516240;230;936;-73
2021/07/04 04:03:51;;;;;;;;;;;22.30;56.90;;;;;;516314;231;970;-73
2021/07/04 04:05:54;;;;;;;;;;;22.50;56.80;;;;;;516294;230;1035;-73
2021/07/04 04:07:54;;;;;;;;;;;22.40;56.70;;;;;;516314;230;1431;-73
2021/07/04 04:09:55;;;;;;;;;;;22.40;56.80;;;;;;516327;230;1160;-73
2021/07/04 04:11:56;;;;;;;;;;;22.40;56.90;;;;;;516281;231;964;-73
2021/07/04 04:13:58;;;;;;;;;;;22.40;57.00;;;;;;516313;230;921;-73
2021/07/04 04:15:59;;;;;;;;;;;22.30;57.00;;;;;;516260;231;2188;-73
2021/07/04 04:18:00;;;;;;;;;;;22.40;57.00;;;;;;516295;230;972;-73
2021/07/04 04:20:02;;;;;;;;;;;22.40;57.00;;;;;;516408;230;1048;-73
2021/07/04 04:22:03;;;;;;;;;;;22.40;57.00;;;;;;516298;230;933;-73
2021/07/04 04:24:04;;;;;;;;;;;22.40;56.80;;;;;;516357;231;1120;-73
2021/07/04 04:26:06;;;;;;;;;;;22.40;56.80;;;;;;516319;231;1090;-73
2021/07/04 04:28:08;;;;;;;;;;;22.40;56.90;;;;;;516431;230;1062;-73
2021/07/04 04:30:08;;;;;;;;;;;22.40;56.90;;;;;;516301;230;1380;-73
2021/07/04 04:32:10;;;;;;;;;;;22.40;57.00;;;;;;516204;231;936;-72
2021/07/04 04:34:11;;;;;;;;;;;22.40;56.90;;;;;;516365;230;944;-72
2021/07/04 04:36:12;;;;;;;;;;;22.30;57.10;;;;;;516178;231;2141;-73
2021/07/04 04:38:14;;;;;;;;;;;22.30;57.10;;;;;;516286;230;917;-73
2021/07/04 04:40:15;;;;;;;;;;;22.30;57.00;;;;;;516340;231;1152;-73
2021/07/04 04:42:16;;;;;;;;;;;22.30;57.10;;;;;;516311;230;1152;-73
2021/07/04 04:44:18;;;;;;;;;;;22.40;57.00;;;;;;516332;230;960;-73
2021/07/04 04:46:19;;;;;;;;;;;22.40;57.10;;;;;;516353;230;1090;-73
2021/07/04 04:48:20;;;;;;;;;;;22.30;57.10;;;;;;516283;231;1063;-73
2021/07/04 04:50:22;;;;;;;;;;;22.30;57.10;;;;;;516296;231;934;-73
2021/07/04 04:52:23;;;;;;;;;;;22.30;57.30;;;;;;516349;230;1049;-73
2021/07/04 04:54:24;;;;;;;;;;;22.30;57.30;;;;;;516442;230;955;-73
2021/07/04 04:56:26;;;;;;;;;;;22.20;57.40;;;;;;516207;231;2156;-73
2021/07/04 04:58:27;;;;;;;;;;;22.20;57.50;;;;;;516268;230;1086;-73
2021/07/04 05:00:28;;;;;;;;;;;22.30;57.40;;;;;;516275;231;946;-73
2021/07/04 05:02:30;;;;;;;;;;;22.30;57.30;;;;;;516232;230;1188;-73
2021/07/04 05:04:31;;;;;;;;;;;22.40;57.20;;;;;;516404;230;954;-73
2021/07/04 05:06:32;;;;;;;;;;;22.60;56.50;;;;;;516221;230;1210;-73
2021/07/04 05:08:34;;;;;;;;;;;22.50;56.60;;;;;;516335;230;1122;-73
2021/07/04 05:10:35;;;;;;;;;;;22.40;56.90;;;;;;516289;230;1267;-73
2021/07/04 05:12:36;;;;;;;;;;;22.40;57.00;;;;;;516316;230;1089;-73
2021/07/04 05:14:38;;;;;;;;;;;22.40;57.00;;;;;;516285;231;1107;-73
2021/07/04 05:16:39;;;;;;;;;;;22.40;57.10;;;;;;516280;230;2129;-73
2021/07/04 05:18:40;;;;;;;;;;;22.40;57.00;;;;;;516335;231;1091;-73
2021/07/04 05:20:42;;;;;;;;;;;22.40;57.10;;;;;;516330;230;942;-73
2021/07/04 05:22:43;;;;;;;;;;;22.30;57.10;;;;;;516322;230;1240;-73
2021/07/04 05:24:44;;;;;;;;;;;22.40;57.20;;;;;;516320;230;917;-73
2021/07/04 05:26:46;;;;;;;;;;;22.30;57.30;;;;;;516226;230;1334;-73
2021/07/04 05:28:47;;;;;;;;;;;22.30;57.20;;;;;;516318;231;932;-73
2021/07/04 05:30:48;;;;;;;;;;;22.40;57.20;;;;;;516376;230;997;-73
2021/07/04 05:32:50;;;;;;;;;;;22.40;57.20;;;;;;516314;231;1218;-73
2021/07/04 05:34:51;;;;;;;;;;;22.40;57.10;;;;;;516369;230;1109;-73
2021/07/04 05:36:52;;;;;;;;;;;22.40;57.20;;;;;;516321;231;2121;-73
2021/07/04 05:38:53;;;;;;;;;;;22.40;57.20;;;;;;516339;230;955;-73
2021/07/04 05:40:55;;;;;;;;;;;22.30;57.30;;;;;;516357;230;1226;-73
2021/07/04 05:42:56;;;;;;;;;;;22.30;57.20;;;;;;516318;230;1108;-73
2021/07/04 05:44:57;;;;;;;;;;;22.40;57.30;;;;;;516307;230;970;-73
2021/07/04 05:46:59;;;;;;;;;;;22.30;57.30;;;;;;516222;230;1196;-73
2021/07/04 05:49:00;;;;;;;;;;;22.30;57.40;;;;;;516266;230;959;-73
2021/07/04 05:51:01;;;;;;;;;;;22.30;57.20;;;;;;516295;230;1155;-73
2021/07/04 05:53:03;;;;;;;;;;;22.30;57.40;;;;;;516307;231;1098;-73
2021/07/04 05:55:04;;;;;;;;;;;22.30;57.40;;;;;;516361;230;990;-73
2021/07/04 05:57:06;;;;;;;;;;;22.30;57.50;;;;;;516220;231;2137;-73
2021/07/04 05:59:07;;;;;;;;;;;22.30;57.60;;;;;;516390;230;1008;-73
2021/07/04 06:01:09;;;;;;;;;;;22.30;57.60;;;;;;516269;230;932;-72
2021/07/04 06:03:10;;;;;;;;;;;22.30;57.60;;;;;;516320;230;1155;-72
2021/07/04 06:05:13;;;;;;;;;;;22.30;57.50;;;;;;516290;230;1070;-72
2021/07/04 06:07:13;;;;;;;;;;;22.40;57.30;;;;;;516196;230;1546;-73
2021/07/04 06:09:15;;;;;;;;;;;22.40;57.10;;;;;;516321;231;1016;-73
2021/07/04 06:11:16;;;;;;;;;;;22.40;57.10;;;;;;516303;230;1225;-73
2021/07/04 06:13:17;;;;;;;;;;;22.40;57.30;;;;;;516361;231;1054;-73
2021/07/04 06:15:18;;;;;;;;;;;22.30;57.40;;;;;;516335;230;944;-73
2021/07/04 06:17:20;;;;;;;;;;;22.40;57.40;;;;;;516308;230;2180;-73
2021/07/04 06:19:21;;;;;;;;;;;22.30;57.30;;;;;;516304;231;918;-73
2021/07/04 06:21:23;;;;;;;;;;;22.40;57.30;;;;;;516251;230;1101;-73
2021/07/04 06:23:24;;;;;;;;;;;22.40;57.40;;;;;;516297;230;1187;-73
2021/07/04 06:25:25;;;;;;;;;;;22.30;57.40;;;;;;516292;231;1053;-73
2021/07/04 06:27:27;;;;;;;;;;;22.30;57.50;;;;;;516176;231;1165;-73
2021/07/04 06:29:28;;;;;;;;;;;22.40;57.40;;;;;;516235;231;1061;-73
2021/07/04 06:31:29;;;;;;;;;;;22.40;57.30;;;;;;516248;230;937;-73
2021/07/04 06:33:31;;;;;;;;;;;22.40;57.40;;;;;;516268;231;1127;-73
2021/07/04 06:35:32;;;;;;;;;;;22.40;57.30;;;;;;516316;231;926;-73
2021/07/04 06:37:33;;;;;;;;;;;22.40;57.40;;;;;;516337;230;2172;-73
2021/07/04 06:39:35;;;;;;;;;;;22.40;57.40;;;;;;516373;230;929;-73
2021/07/04 06:41:36;;;;;;;;;;;22.50;57.30;;;;;;516395;230;1132;-73
2021/07/04 06:43:38;;;;;;;;;;;22.40;57.30;;;;;;516388;230;949;-73
2021/07/04 06:45:39;;;;;;;;;;;22.50;57.40;;;;;;516328;230;934;-73
2021/07/04 06:47:40;;;;;;;;;;;22.40;57.40;;;;;;516350;230;1343;-73
2021/07/04 06:49:41;;;;;;;;;;;22.40;57.40;;;;;;516336;230;985;-73
2021/07/04 06:51:43;;;;;;;;;;;22.40;57.40;;;;;;516380;230;952;-73
2021/07/04 06:53:44;;;;;;;;;;;22.40;57.50;;;;;;516328;231;1036;-73
2021/07/04 06:55:45;;;;;;;;;;;22.40;57.50;;;;;;516330;231;930;-73
2021/07/04 06:57:47;;;;;;;;;;;22.30;57.80;;;;;;516326;230;2177;-73
2021/07/04 06:59:48;;;;;;;;;;;22.20;57.80;;;;;;516345;230;1107;-73
2021/07/04 07:01:49;;;;;;;;;;;22.30;57.90;;;;;;516306;231;967;-73
2021/07/04 07:03:52;;;;;;;;;;;22.20;57.80;;;;;;516232;231;1041;-73
2021/07/04 07:05:53;;;;;;;;;;;22.20;57.90;;;;;;516286;230;931;-73
2021/07/04 07:07:55;;;;;;;;;;;22.30;57.80;;;;;;516314;231;935;-73
2021/07/04 07:09:56;;;;;;;;;;;22.30;57.60;;;;;;516377;230;971;-73
2021/07/04 07:11:57;;;;;;;;;;;22.30;57.70;;;;;;516306;231;1181;-73
2021/07/04 07:13:59;;;;;;;;;;;22.30;57.60;;;;;;516363;230;944;-73
2021/07/04 07:16:00;;;;;;;;;;;22.40;57.50;;;;;;516325;231;999;-73
2021/07/04 07:18:01;;;;;;;;;;;22.40;57.40;;;;;;516328;230;2164;-73
2021/07/04 07:20:03;;;;;;;;;;;22.50;57.30;;;;;;516357;230;1018;-73
2021/07/04 07:22:04;;;;;;;;;;;22.50;57.20;;;;;;516259;230;968;-73
2021/07/04 07:24:05;;;;;;;;;;;22.50;57.30;;;;;;516343;230;938;-73
2021/07/04 07:26:07;;;;;;;;;;;22.40;57.50;;;;;;516416;230;929;-73
2021/07/04 07:28:08;;;;;;;;;;;22.40;57.60;;;;;;516482;230;1160;-73
2021/07/04 07:30:09;;;;;;;;;;;22.50;57.40;;;;;;516381;230;1142;-73
2021/07/04 07:32:11;;;;;;;;;;;22.40;57.30;;;;;;516291;231;949;-73
2021/07/04 07:34:12;;;;;;;;;;;22.50;57.20;;;;;;516324;230;977;-73
2021/07/04 07:36:13;;;;;;;;;;;22.50;57.20;;;;;;516325;230;962;-73
2021/07/04 07:38:15;;;;;;;;;;;22.40;57.30;;;;;;516369;230;2137;-73
2021/07/04 07:40:16;;;;;;;;;;;22.40;57.40;;;;;;516374;230;1008;-73
2021/07/04 07:42:17;;;;;;;;;;;22.40;57.40;;;;;;516288;231;1156;-73
2021/07/04 07:44:18;;;;;;;;;;;22.40;57.40;;;;;;516342;231;967;-73
2021/07/04 07:46:20;;;;;;;;;;;22.40;57.30;;;;;;516282;231;926;-73
2021/07/04 07:48:21;;;;;;;;;;;22.40;57.40;;;;;;516336;230;968;-73
2021/07/04 07:50:22;;;;;;;;;;;22.40;57.30;;;;;;516333;230;934;-73
2021/07/04 07:52:24;;;;;;;;;;;22.50;57.20;;;;;;516276;230;1093;-73
2021/07/04 07:54:25;;;;;;;;;;;22.40;57.10;;;;;;516304;231;1026;-73
2021/07/04 07:56:26;;;;;;;;;;;22.50;57.00;;;;;;516311;231;976;-73
2021/07/04 07:58:28;;;;;;;;;;;22.40;57.20;;;;;;516297;231;2177;-73
2021/07/04 08:00:29;;;;;;;;;;;22.30;57.40;;;;;;516304;230;1333;-73
2021/07/04 08:02:30;;;;;;;;;;;22.30;57.50;;;;;;516288;230;961;-73
2021/07/04 08:04:32;;;;;;;;;;;22.30;57.60;;;;;;516266;231;963;-73
2021/07/04 08:06:33;;;;;;;;;;;22.20;57.60;;;;;;516354;230;972;-73
2021/07/04 08:08:34;;;;;;;;;;;22.30;57.40;;;;;;516325;230;919;-73
2021/07/04 08:10:36;;;;;;;;;;;22.40;57.40;;;;;;516298;230;945;-73
2021/07/04 08:12:37;;;;;;;;;;;22.30;57.30;;;;;;516320;231;1155;-73
2021/07/04 08:14:39;;;;;;;;;;;22.40;57.40;;;;;;516335;230;981;-73
2021/07/04 08:16:40;;;;;;;;;;;22.40;57.30;;;;;;516250;231;1038;-73
2021/07/04 08:18:41;;;;;;;;;;;22.40;57.40;;;;;;516367;230;2184;-73
2021/07/04 08:20:42;;;;;;;;;;;22.50;57.20;;;;;;516329;230;970;-73
2021/07/04 08:22:44;;;;;;;;;;;22.40;57.30;;;;;;516340;231;985;-73
2021/07/04 08:24:45;;;;;;;;;;;22.50;57.10;;;;;;516402;230;941;-73
2021/07/04 08:26:46;;;;;;;;;;;22.50;57.10;;;;;;516328;231;945;-73
2021/07/04 08:28:48;;;;;;;;;;;22.50;57.00;;;;;;516360;230;1166;-73
2021/07/04 08:30:49;;;;;;;;;;;22.80;56.40;;;;;;516315;231;959;-73
2021/07/04 08:32:50;;;;;;;;;;;22.60;56.70;;;;;;516330;231;929;-73
2021/07/04 08:34:52;;;;;;;;;;;22.60;56.90;;;;;;516360;230;914;-73
2021/07/04 08:36:53;;;;;;;;;;;22.50;57.20;;;;;;516337;231;1040;-73
2021/07/04 08:38:55;;;;;;;;;;;22.40;57.20;;;;;;516339;231;2133;-73
2021/07/04 08:40:56;;;;;;;;;;;22.40;57.30;;;;;;516304;230;1103;-73
2021/07/04 08:42:57;;;;;;;;;;;22.50;57.40;;;;;;516329;230;1119;-73
2021/07/04 08:44:59;;;;;;;;;;;22.50;57.20;;;;;;516282;230;999;-73
2021/07/04 08:47:00;;;;;;;;;;;22.40;57.60;;;;;;516317;230;955;-73
2021/07/04 08:49:01;;;;;;;;;;;22.40;57.90;;;;;;516344;230;961;-73
2021/07/04 08:51:02;;;;;;;;;;;22.40;58.30;;;;;;516289;230;1051;-73
2021/07/04 08:53:04;;;;;;;;;;;22.30;58.60;;;;;;516339;230;1029;-73
2021/07/04 08:55:05;;;;;;;;;;;22.30;58.90;;;;;;516347;231;1024;-73
2021/07/04 08:57:09;;;;;;;;;;;22.30;59.10;;;;;;516312;230;1040;-73
2021/07/04 08:59:08;;;;;;;;;;;22.20;59.30;;;;;;516243;230;2124;-73
2021/07/04 09:01:09;;;;;;;;;;;22.20;59.40;;;;;;516328;230;1165;-73
2021/07/04 09:03:10;;;;;;;;;;;22.20;59.50;;;;;;516315;230;1238;-73
2021/07/04 09:05:12;;;;;;;;;;;22.20;59.50;;;;;;516332;230;939;-73
2021/07/04 09:07:13;;;;;;;;;;;22.20;59.60;;;;;;516355;230;1074;-73
2021/07/04 09:09:14;;;;;;;;;;;22.20;59.60;;;;;;516300;231;1018;-73
2021/07/04 09:11:16;;;;;;;;;;;22.20;59.50;;;;;;516323;230;1053;-73
2021/07/04 09:13:17;;;;;;;;;;;22.20;59.50;;;;;;516323;231;1207;-73
2021/07/04 09:15:18;;;;;;;;;;;22.20;59.50;;;;;;516238;230;1174;-73
2021/07/04 09:17:20;;;;;;;;;;;22.20;59.50;;;;;;516287;230;975;-73
2021/07/04 09:19:21;;;;;;;;;;;22.20;59.40;;;;;;516358;230;2168;-73
2021/07/04 09:21:22;;;;;;;;;;;22.20;59.40;;;;;;516164;231;1087;-73
2021/07/04 09:23:24;;;;;;;;;;;22.20;59.40;;;;;;516314;230;1152;-73
2021/07/04 09:25:25;;;;;;;;;;;22.20;59.50;;;;;;516257;230;937;-73
2021/07/04 09:27:26;;;;;;;;;;;22.30;59.30;;;;;;516269;230;1064;-73
2021/07/04 09:29:28;;;;;;;;;;;22.30;59.20;;;;;;516402;230;1169;-73
2021/07/04 09:31:29;;;;;;;;;;;22.40;58.70;;;;;;516200;231;1179;-73
2021/07/04 09:33:31;;;;;;;;;;;22.50;58.60;;;;;;516304;230;975;-73
2021/07/04 09:35:32;;;;;;;;;;;22.50;58.50;;;;;;516277;230;975;-73
2021/07/04 09:37:33;;;;;;;;;;;22.50;58.40;;;;;;517403;230;962;-73
2021/07/04 09:39:35;;;;;;;;;;;22.40;58.50;;;;;;516903;230;2096;-73
2021/07/04 09:41:36;;;;;;;;;;;22.40;58.50;;;;;;516251;231;1009;-73
2021/07/04 09:43:37;;;;;;;;;;;22.40;58.30;;;;;;516300;231;952;-73
2021/07/04 09:45:39;;;;;;;;;;;22.40;58.30;;;;;;516190;231;1155;-73
2021/07/04 09:47:40;;;;;;;;;;;22.50;58.30;;;;;;516223;230;1000;-73
2021/07/04 09:49:41;;;;;;;;;;;22.40;58.30;;;;;;516279;231;923;-73
2021/07/04 09:51:43;;;;;;;;;;;22.50;58.20;;;;;;516188;230;953;-73
2021/07/04 09:53:45;;;;;;;;;;;22.50;58.20;;;;;;516273;230;1043;-73
2021/07/04 09:55:50;;;;;;;;;;;22.50;58.10;;;;;;516287;230;1043;-73
2021/07/04 09:57:47;;;;;;;;;;;22.50;58.10;;;;;;516118;230;2157;-73
2021/07/04 09:59:49;;;;;;;;;;;22.50;58.10;;;;;;509436;231;1301;-73
2021/07/04 10:01:50;;;;;;;;;;;22.50;58.10;;;;;;514572;231;1019;-73
2021/07/04 10:03:51;;;;;;;;;;;22.40;58.20;;;;;;514722;231;958;-73
2021/07/04 10:05:53;;;;;;;;;;;22.50;58.20;;;;;;514659;231;927;-73
2021/07/04 10:07:54;;;;;;;;;;;22.40;58.30;;;;;;515560;231;950;-73
2021/07/04 10:09:55;;;;;;;;;;;22.40;58.40;;;;;;516322;231;1040;-73
2021/07/04 10:11:56;;;;;;;;;;;22.40;58.30;;;;;;516252;230;960;-73
2021/07/04 10:13:58;;;;;;;;;;;22.40;58.30;;;;;;516335;231;1029;-73
2021/07/04 10:15:59;;;;;;;;;;;22.50;58.20;;;;;;516324;230;1126;-73
2021/07/04 10:18:00;;;;;;;;;;;22.50;58.00;;;;;;516302;230;2125;-73
2021/07/04 10:20:02;;;;;;;;;;;22.50;58.00;;;;;;516303;231;1141;-73
2021/07/04 10:22:03;;;;;;;;;;;22.60;57.90;;;;;;516245;231;1045;-73
2021/07/04 10:24:04;;;;;;;;;;;22.60;57.70;;;;;;516379;230;1013;-73
2021/07/04 10:26:06;;;;;;;;;;;22.60;57.70;;;;;;516273;230;991;-73
2021/07/04 10:28:07;;;;;;;;;;;22.60;57.70;;;;;;516362;231;973;-73
2021/07/04 10:30:08;;;;;;;;;;;22.60;57.70;;;;;;516323;230;1131;-73
2021/07/04 10:32:10;;;;;;;;;;;22.70;57.50;;;;;;516273;230;1066;-73
2021/07/04 10:34:11;;;;;;;;;;;22.60;57.70;;;;;;516313;231;1046;-73
2021/07/04 10:36:13;;;;;;;;;;;22.60;57.70;;;;;;516282;231;989;-73
2021/07/04 10:38:14;;;;;;;;;;;22.50;57.70;;;;;;516282;231;2133;-73
2021/07/04 10:40:15;;;;;;;;;;;22.50;57.90;;;;;;516332;230;1058;-73
2021/07/04 10:42:16;;;;;;;;;;;22.50;57.80;;;;;;516255;230;973;-73
2021/07/04 10:44:18;;;;;;;;;;;22.60;57.90;;;;;;516319;230;1040;-73
2021/07/04 10:46:19;;;;;;;;;;;22.50;57.80;;;;;;516219;231;1174;-73
2021/07/04 10:48:20;;;;;;;;;;;22.60;57.70;;;;;;516405;230;1025;-73
2021/07/04 10:50:23;;;;;;;;;;;22.60;57.60;;;;;;516464;230;1215;-73
2021/07/04 10:52:24;;;;;;;;;;;22.60;57.50;;;;;;516210;231;1031;-73
2021/07/04 10:54:26;;;;;;;;;;;22.60;57.60;;;;;;516283;230;960;-73
2021/07/04 10:56:27;;;;;;;;;;;22.50;57.80;;;;;;516179;231;1190;-73
2021/07/04 10:58:28;;;;;;;;;;;22.60;57.80;;;;;;516283;230;2172;-73
2021/07/04 11:00:30;;;;;;;;;;;22.60;57.70;;;;;;516316;230;1272;-73
2021/07/04 11:02:31;;;;;;;;;;;22.50;57.70;;;;;;516254;231;932;-73
2021/07/04 11:04:32;;;;;;;;;;;22.50;57.70;;;;;;516355;230;934;-73
2021/07/04 11:06:34;;;;;;;;;;;22.50;57.80;;;;;;516255;231;965;-73
2021/07/04 11:08:35;;;;;;;;;;;22.40;58.00;;;;;;516217;230;963;-73
2021/07/04 11:10:36;;;;;;;;;;;22.40;58.20;;;;;;516265;230;957;-73
2021/07/04 11:12:38;;;;;;;;;;;22.40;58.40;;;;;;516261;230;1023;-73
2021/07/04 11:14:39;;;;;;;;;;;22.30;58.50;;;;;;516265;231;1083;-73
2021/07/04 11:16:40;;;;;;;;;;;22.40;58.50;;;;;;516188;231;1272;-73
2021/07/04 11:18:42;;;;;;;;;;;22.30;58.60;;;;;;516251;230;2172;-73
2021/07/04 11:20:44;;;;;;;;;;;22.30;58.70;;;;;;516368;231;1281;-73
2021/07/04 11:22:45;;;;;;;;;;;22.30;58.70;;;;;;516270;231;1126;-73
2021/07/04 11:24:46;;;;;;;;;;;22.30;58.80;;;;;;516340;231;1041;-73
2021/07/04 11:26:47;;;;;;;;;;;22.20;58.80;;;;;;516299;230;1064;-73
2021/07/04 11:28:49;;;;;;;;;;;22.20;58.80;;;;;;516357;231;938;-73
2021/07/04 11:30:50;;;;;;;;;;;22.40;58.60;;;;;;516320;230;1139;-73
2021/07/04 11:32:51;;;;;;;;;;;22.20;58.70;;;;;;516300;230;1170;-73
2021/07/04 11:34:53;;;;;;;;;;;22.20;58.70;;;;;;516275;231;1007;-73
2021/07/04 11:36:54;;;;;;;;;;;22.20;58.70;;;;;;516273;231;981;-73
2021/07/04 11:38:55;;;;;;;;;;;22.20;58.70;;;;;;516337;230;2133;-73
2021/07/04 11:40:57;;;;;;;;;;;22.20;58.80;;;;;;516270;231;979;-73
2021/07/04 11:42:58;;;;;;;;;;;22.20;58.70;;;;;;516311;230;1028;-73
2021/07/04 11:44:59;;;;;;;;;;;22.20;58.90;;;;;;516341;230;940;-73
2021/07/04 11:47:00;;;;;;;;;;;22.20;58.90;;;;;;516225;231;1511;-73
2021/07/04 11:49:03;;;;;;;;;;;22.20;58.90;;;;;;516293;231;1203;-73
2021/07/04 11:51:06;;;;;;;;;;;22.20;58.80;;;;;;516282;231;942;-73
2021/07/04 11:53:06;;;;;;;;;;;22.20;58.90;;;;;;516203;230;1376;-73
2021/07/04 11:55:07;;;;;;;;;;;22.20;58.80;;;;;;516275;231;957;-73
2021/07/04 11:59:28;;;;;;;;;;;22.10;58.80;;;;;;516338;230;2117;-73
2021/07/04 12:01:29;;;;;;;;;;;22.10;58.90;;;;;;508847;231;1327;-73
2021/07/04 12:03:30;;;;;;;;;;;22.10;59.00;;;;;;514679;231;974;-73